Lorberry, Pennsylvania
Current Conditions -  °F | °C
As of 6:58 PM on Friday 21 Nov 2014 (Local Time) from KMUI Reporting Station
Clear Clear  
Wind Chill: 22°   Ceiling: Unl
Heat Index: 29°   Visibility: 10mi
Dew Point:   Wind: 7mph
Humidity: 41%   Direction: 290°WNW
Pressure: 30.49"   Gusts: NA
Location:  40.5592°N, 76.3347°W
Report Text: KMUI 212358Z AUTO 29006KT 10SM CLR M02/M13 A3049 RMK AO2 SLP335 T10171135 10012 21018 52021 $
Loading
Personal Weather Stations






























Interactive Weather Map New forecast layout! Learn more

10-Day Weather Forecast

Advertisements
Track Severe Weather on mobile